sensor_id;sensor_type;location;lat;lon;timestamp;P1;durP1;ratioP1;P2;durP2;ratioP2
11303;SDS011;5707;49.588;12.148;2023-06-14T00:00:13;4.28;;;2.30;;
11303;SDS011;5707;49.588;12.148;2023-06-14T00:02:40;1.95;;;1.77;;
11303;SDS011;5707;49.588;12.148;2023-06-14T00:05:06;2.83;;;2.10;;
11303;SDS011;5707;49.588;12.148;2023-06-14T00:07:36;1.80;;;1.70;;
11303;SDS011;5707;49.588;12.148;2023-06-14T00:10:03;4.32;;;2.78;;
11303;SDS011;5707;49.588;12.148;2023-06-14T00:12:30;3.58;;;1.70;;
11303;SDS011;5707;49.588;12.148;2023-06-14T00:14:56;2.28;;;1.80;;
11303;SDS011;5707;49.588;12.148;2023-06-14T00:17:22;2.35;;;2.00;;
11303;SDS011;5707;49.588;12.148;2023-06-14T00:19:48;2.38;;;2.17;;
11303;SDS011;5707;49.588;12.148;2023-06-14T00:22:13;2.25;;;2.05;;
11303;SDS011;5707;49.588;12.148;2023-06-14T00:24:39;4.35;;;2.10;;
11303;SDS011;5707;49.588;12.148;2023-06-14T00:27:04;3.92;;;1.95;;
11303;SDS011;5707;49.588;12.148;2023-06-14T00:29:30;3.05;;;1.95;;
11303;SDS011;5707;49.588;12.148;2023-06-14T00:31:56;2.20;;;2.00;;
11303;SDS011;5707;49.588;12.148;2023-06-14T00:34:21;2.13;;;1.92;;
11303;SDS011;5707;49.588;12.148;2023-06-14T00:36:47;2.42;;;2.15;;
11303;SDS011;5707;49.588;12.148;2023-06-14T00:39:12;2.22;;;2.03;;
11303;SDS011;5707;49.588;12.148;2023-06-14T00:41:39;2.13;;;2.03;;
11303;SDS011;5707;49.588;12.148;2023-06-14T00:44:05;2.30;;;2.10;;
11303;SDS011;5707;49.588;12.148;2023-06-14T00:46:31;1.80;;;1.70;;
11303;SDS011;5707;49.588;12.148;2023-06-14T00:48:56;3.13;;;1.92;;
11303;SDS011;5707;49.588;12.148;2023-06-14T00:51:25;2.83;;;1.85;;
11303;SDS011;5707;49.588;12.148;2023-06-14T00:53:51;4.70;;;2.08;;
11303;SDS011;5707;49.588;12.148;2023-06-14T00:56:17;1.95;;;1.85;;
11303;SDS011;5707;49.588;12.148;2023-06-14T00:58:45;3.17;;;1.98;;
11303;SDS011;5707;49.588;12.148;2023-06-14T01:01:11;3.40;;;2.25;;
11303;SDS011;5707;49.588;12.148;2023-06-14T01:03:37;2.35;;;1.80;;
11303;SDS011;5707;49.588;12.148;2023-06-14T01:09:29;2.53;;;2.03;;
11303;SDS011;5707;49.588;12.148;2023-06-14T01:12:04;2.70;;;2.05;;
11303;SDS011;5707;49.588;12.148;2023-06-14T01:14:38;2.35;;;2.15;;
11303;SDS011;5707;49.588;12.148;2023-06-14T01:17:06;1.85;;;1.75;;
11303;SDS011;5707;49.588;12.148;2023-06-14T01:19:41;2.63;;;2.50;;
11303;SDS011;5707;49.588;12.148;2023-06-14T01:22:07;2.50;;;2.30;;
11303;SDS011;5707;49.588;12.148;2023-06-14T01:24:33;2.38;;;2.25;;
11303;SDS011;5707;49.588;12.148;2023-06-14T01:27:00;2.65;;;2.45;;
11303;SDS011;5707;49.588;12.148;2023-06-14T01:29:26;2.22;;;2.03;;
11303;SDS011;5707;49.588;12.148;2023-06-14T01:31:58;2.42;;;2.22;;
11303;SDS011;5707;49.588;12.148;2023-06-14T01:34:25;3.58;;;2.00;;
11303;SDS011;5707;49.588;12.148;2023-06-14T01:36:51;3.30;;;2.35;;
11303;SDS011;5707;49.588;12.148;2023-06-14T01:39:19;2.90;;;2.25;;
11303;SDS011;5707;49.588;12.148;2023-06-14T01:41:46;2.08;;;1.98;;
11303;SDS011;5707;49.588;12.148;2023-06-14T01:44:12;3.70;;;2.53;;
11303;SDS011;5707;49.588;12.148;2023-06-14T01:46:40;2.60;;;2.40;;
11303;SDS011;5707;49.588;12.148;2023-06-14T01:49:07;2.25;;;2.00;;
11303;SDS011;5707;49.588;12.148;2023-06-14T01:51:33;2.70;;;2.50;;
11303;SDS011;5707;49.588;12.148;2023-06-14T01:53:58;4.45;;;2.20;;
11303;SDS011;5707;49.588;12.148;2023-06-14T01:56:25;5.60;;;2.45;;
11303;SDS011;5707;49.588;12.148;2023-06-14T01:58:51;2.28;;;2.03;;
11303;SDS011;5707;49.588;12.148;2023-06-14T02:01:16;2.40;;;2.20;;
11303;SDS011;5707;49.588;12.148;2023-06-14T02:03:44;1.92;;;1.70;;
11303;SDS011;5707;49.588;12.148;2023-06-14T02:06:10;2.35;;;2.20;;
11303;SDS011;5707;49.588;12.148;2023-06-14T02:08:35;2.47;;;2.28;;
11303;SDS011;5707;49.588;12.148;2023-06-14T02:11:01;2.47;;;2.28;;
11303;SDS011;5707;49.588;12.148;2023-06-14T02:13:27;7.40;;;2.20;;
11303;SDS011;5707;49.588;12.148;2023-06-14T02:15:52;2.53;;;2.33;;
11303;SDS011;5707;49.588;12.148;2023-06-14T02:18:19;2.50;;;2.30;;
11303;SDS011;5707;49.588;12.148;2023-06-14T02:20:46;3.13;;;2.33;;
11303;SDS011;5707;49.588;12.148;2023-06-14T02:23:12;3.10;;;2.50;;
11303;SDS011;5707;49.588;12.148;2023-06-14T02:25:38;2.40;;;2.30;;
11303;SDS011;5707;49.588;12.148;2023-06-14T02:28:05;2.90;;;2.70;;
11303;SDS011;5707;49.588;12.148;2023-06-14T02:30:30;2.83;;;2.63;;
11303;SDS011;5707;49.588;12.148;2023-06-14T02:32:56;2.50;;;2.30;;
11303;SDS011;5707;49.588;12.148;2023-06-14T02:35:22;2.95;;;2.30;;
11303;SDS011;5707;49.588;12.148;2023-06-14T02:37:51;3.28;;;2.38;;
11303;SDS011;5707;49.588;12.148;2023-06-14T02:40:17;2.70;;;2.50;;
11303;SDS011;5707;49.588;12.148;2023-06-14T02:42:43;2.47;;;2.33;;
11303;SDS011;5707;49.588;12.148;2023-06-14T02:45:09;2.55;;;2.35;;
11303;SDS011;5707;49.588;12.148;2023-06-14T02:47:35;3.38;;;2.33;;
11303;SDS011;5707;49.588;12.148;2023-06-14T02:50:01;3.78;;;1.80;;
11303;SDS011;5707;49.588;12.148;2023-06-14T02:52:27;2.78;;;2.58;;
11303;SDS011;5707;49.588;12.148;2023-06-14T02:54:53;3.00;;;2.78;;
11303;SDS011;5707;49.588;12.148;2023-06-14T02:57:19;3.22;;;2.60;;
11303;SDS011;5707;49.588;12.148;2023-06-14T02:59:45;2.47;;;2.28;;
11303;SDS011;5707;49.588;12.148;2023-06-14T03:02:11;2.75;;;2.55;;
11303;SDS011;5707;49.588;12.148;2023-06-14T03:04:36;2.65;;;2.20;;
11303;SDS011;5707;49.588;12.148;2023-06-14T03:07:02;6.03;;;3.22;;
11303;SDS011;5707;49.588;12.148;2023-06-14T03:09:34;3.00;;;2.67;;
11303;SDS011;5707;49.588;12.148;2023-06-14T03:12:01;2.70;;;2.50;;
11303;SDS011;5707;49.588;12.148;2023-06-14T03:14:28;4.00;;;2.80;;
11303;SDS011;5707;49.588;12.148;2023-06-14T03:16:55;4.40;;;2.60;;
11303;SDS011;5707;49.588;12.148;2023-06-14T03:19:22;2.92;;;2.72;;
11303;SDS011;5707;49.588;12.148;2023-06-14T03:21:48;3.00;;;2.78;;
11303;SDS011;5707;49.588;12.148;2023-06-14T03:24:14;3.20;;;2.83;;
11303;SDS011;5707;49.588;12.148;2023-06-14T03:26:41;3.22;;;2.55;;
11303;SDS011;5707;49.588;12.148;2023-06-14T03:29:07;3.03;;;2.83;;
11303;SDS011;5707;49.588;12.148;2023-06-14T03:31:34;3.30;;;3.10;;
11303;SDS011;5707;49.588;12.148;2023-06-14T03:34:00;2.70;;;2.50;;
11303;SDS011;5707;49.588;12.148;2023-06-14T03:36:26;3.30;;;2.72;;
11303;SDS011;5707;49.588;12.148;2023-06-14T03:38:52;3.20;;;2.85;;
11303;SDS011;5707;49.588;12.148;2023-06-14T03:41:19;3.20;;;2.75;;
11303;SDS011;5707;49.588;12.148;2023-06-14T03:43:45;2.95;;;2.75;;
11303;SDS011;5707;49.588;12.148;2023-06-14T03:46:11;4.55;;;2.63;;
11303;SDS011;5707;49.588;12.148;2023-06-14T03:48:36;4.38;;;3.33;;
11303;SDS011;5707;49.588;12.148;2023-06-14T03:51:03;3.20;;;3.00;;
11303;SDS011;5707;49.588;12.148;2023-06-14T03:53:29;3.13;;;2.92;;
11303;SDS011;5707;49.588;12.148;2023-06-14T03:55:55;2.92;;;2.75;;
11303;SDS011;5707;49.588;12.148;2023-06-14T03:58:22;3.45;;;3.15;;
11303;SDS011;5707;49.588;12.148;2023-06-14T04:00:47;6.28;;;3.00;;
11303;SDS011;5707;49.588;12.148;2023-06-14T04:03:14;3.20;;;3.00;;
11303;SDS011;5707;49.588;12.148;2023-06-14T04:05:40;3.92;;;3.13;;
11303;SDS011;5707;49.588;12.148;2023-06-14T04:08:09;5.75;;;3.13;;
11303;SDS011;5707;49.588;12.148;2023-06-14T04:10:35;3.35;;;3.08;;
11303;SDS011;5707;49.588;12.148;2023-06-14T04:13:00;4.45;;;3.53;;
11303;SDS011;5707;49.588;12.148;2023-06-14T04:15:26;2.92;;;2.67;;
11303;SDS011;5707;49.588;12.148;2023-06-14T04:17:53;3.95;;;3.58;;
11303;SDS011;5707;49.588;12.148;2023-06-14T04:20:22;3.30;;;3.08;;
11303;SDS011;5707;49.588;12.148;2023-06-14T04:22:49;3.20;;;3.00;;
11303;SDS011;5707;49.588;12.148;2023-06-14T04:25:15;4.00;;;3.42;;
11303;SDS011;5707;49.588;12.148;2023-06-14T04:27:41;3.47;;;3.20;;
11303;SDS011;5707;49.588;12.148;2023-06-14T04:30:07;3.92;;;3.45;;
11303;SDS011;5707;49.588;12.148;2023-06-14T04:32:33;6.03;;;3.67;;
11303;SDS011;5707;49.588;12.148;2023-06-14T04:35:04;4.97;;;3.30;;
11303;SDS011;5707;49.588;12.148;2023-06-14T04:37:31;3.47;;;3.17;;
11303;SDS011;5707;49.588;12.148;2023-06-14T04:39:58;3.92;;;3.63;;
11303;SDS011;5707;49.588;12.148;2023-06-14T04:42:23;6.90;;;3.50;;
11303;SDS011;5707;49.588;12.148;2023-06-14T04:44:56;4.85;;;3.38;;
11303;SDS011;5707;49.588;12.148;2023-06-14T04:47:22;3.72;;;3.53;;
11303;SDS011;5707;49.588;12.148;2023-06-14T04:49:50;3.30;;;3.10;;
11303;SDS011;5707;49.588;12.148;2023-06-14T04:52:18;4.45;;;4.10;;
11303;SDS011;5707;49.588;12.148;2023-06-14T04:54:46;4.38;;;3.28;;
11303;SDS011;5707;49.588;12.148;2023-06-14T04:57:12;3.90;;;3.60;;
11303;SDS011;5707;49.588;12.148;2023-06-14T04:59:42;3.40;;;3.20;;
11303;SDS011;5707;49.588;12.148;2023-06-14T05:02:09;3.35;;;3.13;;
11303;SDS011;5707;49.588;12.148;2023-06-14T05:04:35;3.95;;;3.50;;
11303;SDS011;5707;49.588;12.148;2023-06-14T05:07:06;5.00;;;3.15;;
11303;SDS011;5707;49.588;12.148;2023-06-14T05:09:33;4.00;;;3.08;;
11303;SDS011;5707;49.588;12.148;2023-06-14T05:11:58;3.10;;;2.90;;
11303;SDS011;5707;49.588;12.148;2023-06-14T05:14:25;3.45;;;3.15;;
11303;SDS011;5707;49.588;12.148;2023-06-14T05:16:51;2.80;;;2.60;;
11303;SDS011;5707;49.588;12.148;2023-06-14T05:19:17;4.32;;;2.83;;
11303;SDS011;5707;49.588;12.148;2023-06-14T05:21:43;3.00;;;2.80;;
11303;SDS011;5707;49.588;12.148;2023-06-14T05:24:09;3.28;;;3.08;;
11303;SDS011;5707;49.588;12.148;2023-06-14T05:26:36;2.80;;;2.60;;
11303;SDS011;5707;49.588;12.148;2023-06-14T05:29:02;3.10;;;2.90;;
11303;SDS011;5707;49.588;12.148;2023-06-14T05:31:28;3.20;;;3.00;;
11303;SDS011;5707;49.588;12.148;2023-06-14T05:33:53;6.00;;;3.05;;
11303;SDS011;5707;49.588;12.148;2023-06-14T05:36:20;2.70;;;2.50;;
11303;SDS011;5707;49.588;12.148;2023-06-14T05:38:49;3.30;;;3.00;;
11303;SDS011;5707;49.588;12.148;2023-06-14T05:41:15;2.65;;;2.45;;
11303;SDS011;5707;49.588;12.148;2023-06-14T05:43:41;2.85;;;2.65;;
11303;SDS011;5707;49.588;12.148;2023-06-14T05:46:07;3.22;;;2.92;;
11303;SDS011;5707;49.588;12.148;2023-06-14T05:48:32;3.97;;;2.42;;
11303;SDS011;5707;49.588;12.148;2023-06-14T05:50:58;5.50;;;2.83;;
11303;SDS011;5707;49.588;12.148;2023-06-14T05:53:24;2.97;;;2.78;;
11303;SDS011;5707;49.588;12.148;2023-06-14T05:55:50;4.03;;;2.70;;
11303;SDS011;5707;49.588;12.148;2023-06-14T05:58:19;4.25;;;2.92;;
11303;SDS011;5707;49.588;12.148;2023-06-14T06:00:46;3.05;;;2.85;;
11303;SDS011;5707;49.588;12.148;2023-06-14T06:03:11;2.45;;;2.25;;
11303;SDS011;5707;49.588;12.148;2023-06-14T06:05:38;2.42;;;2.30;;
11303;SDS011;5707;49.588;12.148;2023-06-14T06:08:03;2.92;;;2.30;;
11303;SDS011;5707;49.588;12.148;2023-06-14T06:10:29;2.90;;;2.60;;
11303;SDS011;5707;49.588;12.148;2023-06-14T06:12:55;3.55;;;2.30;;
11303;SDS011;5707;49.588;12.148;2023-06-14T06:15:20;2.40;;;2.20;;
11303;SDS011;5707;49.588;12.148;2023-06-14T06:17:46;5.50;;;2.42;;
11303;SDS011;5707;49.588;12.148;2023-06-14T06:20:11;3.63;;;2.33;;
11303;SDS011;5707;49.588;12.148;2023-06-14T06:22:37;2.78;;;2.53;;
11303;SDS011;5707;49.588;12.148;2023-06-14T06:25:04;2.33;;;2.00;;
11303;SDS011;5707;49.588;12.148;2023-06-14T06:27:31;3.13;;;2.50;;
11303;SDS011;5707;49.588;12.148;2023-06-14T06:29:57;2.65;;;2.45;;
11303;SDS011;5707;49.588;12.148;2023-06-14T06:32:22;3.00;;;2.50;;
11303;SDS011;5707;49.588;12.148;2023-06-14T06:34:48;2.58;;;2.38;;
11303;SDS011;5707;49.588;12.148;2023-06-14T06:37:13;2.28;;;1.92;;
11303;SDS011;5707;49.588;12.148;2023-06-14T06:39:39;2.38;;;2.20;;
11303;SDS011;5707;49.588;12.148;2023-06-14T06:42:05;3.20;;;2.15;;
11303;SDS011;5707;49.588;12.148;2023-06-14T06:44:31;3.50;;;2.15;;
11303;SDS011;5707;49.588;12.148;2023-06-14T06:46:57;2.00;;;1.90;;
11303;SDS011;5707;49.588;12.148;2023-06-14T06:49:23;3.60;;;2.30;;
11303;SDS011;5707;49.588;12.148;2023-06-14T06:52:04;2.35;;;2.22;;
11303;SDS011;5707;49.588;12.148;2023-06-14T06:54:31;2.65;;;2.15;;
11303;SDS011;5707;49.588;12.148;2023-06-14T06:56:57;2.33;;;2.10;;
11303;SDS011;5707;49.588;12.148;2023-06-14T06:59:23;3.05;;;1.73;;
11303;SDS011;5707;49.588;12.148;2023-06-14T07:01:48;1.98;;;1.88;;
11303;SDS011;5707;49.588;12.148;2023-06-14T07:04:14;2.33;;;2.13;;
11303;SDS011;5707;49.588;12.148;2023-06-14T07:06:41;2.45;;;1.98;;
11303;SDS011;5707;49.588;12.148;2023-06-14T07:09:07;2.42;;;2.22;;
11303;SDS011;5707;49.588;12.148;2023-06-14T07:11:37;3.58;;;2.10;;
11303;SDS011;5707;49.588;12.148;2023-06-14T07:14:06;2.15;;;1.88;;
11303;SDS011;5707;49.588;12.148;2023-06-14T07:16:31;3.25;;;2.35;;
11303;SDS011;5707;49.588;12.148;2023-06-14T07:18:57;2.60;;;2.35;;
11303;SDS011;5707;49.588;12.148;2023-06-14T07:21:23;2.47;;;2.28;;
11303;SDS011;5707;49.588;12.148;2023-06-14T07:23:50;3.58;;;2.28;;
11303;SDS011;5707;49.588;12.148;2023-06-14T07:26:16;2.22;;;2.00;;
11303;SDS011;5707;49.588;12.148;2023-06-14T07:28:42;3.33;;;2.08;;
11303;SDS011;5707;49.588;12.148;2023-06-14T07:31:10;2.70;;;2.10;;
11303;SDS011;5707;49.588;12.148;2023-06-14T07:33:36;1.90;;;1.80;;
11303;SDS011;5707;49.588;12.148;2023-06-14T07:36:02;2.30;;;1.73;;
11303;SDS011;5707;49.588;12.148;2023-06-14T07:38:27;2.90;;;2.00;;
11303;SDS011;5707;49.588;12.148;2023-06-14T07:40:53;2.53;;;2.33;;
11303;SDS011;5707;49.588;12.148;2023-06-14T07:43:19;2.50;;;2.30;;
11303;SDS011;5707;49.588;12.148;2023-06-14T07:45:44;2.33;;;2.15;;
11303;SDS011;5707;49.588;12.148;2023-06-14T07:48:10;2.05;;;1.95;;
11303;SDS011;5707;49.588;12.148;2023-06-14T07:50:36;2.22;;;2.10;;
11303;SDS011;5707;49.588;12.148;2023-06-14T07:53:02;1.92;;;1.83;;
11303;SDS011;5707;49.588;12.148;2023-06-14T07:55:27;2.17;;;2.08;;
11303;SDS011;5707;49.588;12.148;2023-06-14T07:57:53;1.80;;;1.70;;
11303;SDS011;5707;49.588;12.148;2023-06-14T08:00:19;3.67;;;1.63;;
11303;SDS011;5707;49.588;12.148;2023-06-14T08:02:45;3.08;;;1.90;;
11303;SDS011;5707;49.588;12.148;2023-06-14T08:05:11;2.38;;;2.20;;
11303;SDS011;5707;49.588;12.148;2023-06-14T08:07:37;2.03;;;1.83;;
11303;SDS011;5707;49.588;12.148;2023-06-14T08:10:04;1.73;;;1.58;;
11303;SDS011;5707;49.588;12.148;2023-06-14T08:12:31;4.90;;;2.20;;
11303;SDS011;5707;49.588;12.148;2023-06-14T08:14:57;3.90;;;2.10;;
11303;SDS011;5707;49.588;12.148;2023-06-14T08:17:23;2.25;;;2.05;;
11303;SDS011;5707;49.588;12.148;2023-06-14T08:19:48;2.75;;;2.20;;
11303;SDS011;5707;49.588;12.148;2023-06-14T08:22:14;2.17;;;1.95;;
11303;SDS011;5707;49.588;12.148;2023-06-14T08:24:40;2.25;;;2.00;;
11303;SDS011;5707;49.588;12.148;2023-06-14T08:27:06;2.13;;;1.90;;
11303;SDS011;5707;49.588;12.148;2023-06-14T08:29:31;1.92;;;1.83;;
11303;SDS011;5707;49.588;12.148;2023-06-14T08:31:57;2.42;;;2.22;;
11303;SDS011;5707;49.588;12.148;2023-06-14T08:34:23;2.03;;;1.80;;
11303;SDS011;5707;49.588;12.148;2023-06-14T08:36:50;3.38;;;1.35;;
11303;SDS011;5707;49.588;12.148;2023-06-14T08:39:16;2.42;;;1.80;;
11303;SDS011;5707;49.588;12.148;2023-06-14T08:41:42;4.40;;;1.77;;
11303;SDS011;5707;49.588;12.148;2023-06-14T08:44:10;2.95;;;1.50;;
11303;SDS011;5707;49.588;12.148;2023-06-14T08:46:37;3.05;;;2.00;;
11303;SDS011;5707;49.588;12.148;2023-06-14T08:49:03;3.05;;;1.60;;
11303;SDS011;5707;49.588;12.148;2023-06-14T08:51:31;2.05;;;1.92;;
11303;SDS011;5707;49.588;12.148;2023-06-14T08:54:01;3.08;;;1.65;;
11303;SDS011;5707;49.588;12.148;2023-06-14T08:56:29;1.85;;;1.75;;
11303;SDS011;5707;49.588;12.148;2023-06-14T08:58:55;1.77;;;1.67;;
11303;SDS011;5707;49.588;12.148;2023-06-14T09:01:29;2.30;;;1.67;;
11303;SDS011;5707;49.588;12.148;2023-06-14T09:04:01;7.97;;;1.80;;
11303;SDS011;5707;49.588;12.148;2023-06-14T09:06:27;2.78;;;2.38;;
11303;SDS011;5707;49.588;12.148;2023-06-14T09:08:54;2.33;;;2.08;;
11303;SDS011;5707;49.588;12.148;2023-06-14T09:11:23;2.00;;;1.73;;
11303;SDS011;5707;49.588;12.148;2023-06-14T09:13:51;2.88;;;1.73;;
11303;SDS011;5707;49.588;12.148;2023-06-14T09:16:16;1.88;;;1.73;;
11303;SDS011;5707;49.588;12.148;2023-06-14T09:18:43;1.88;;;1.77;;
11303;SDS011;5707;49.588;12.148;2023-06-14T09:21:10;2.88;;;2.03;;
11303;SDS011;5707;49.588;12.148;2023-06-14T09:23:37;1.80;;;1.70;;
11303;SDS011;5707;49.588;12.148;2023-06-14T09:26:14;2.03;;;1.92;;
11303;SDS011;5707;49.588;12.148;2023-06-14T09:28:41;2.53;;;2.25;;
11303;SDS011;5707;49.588;12.148;2023-06-14T09:31:08;4.97;;;2.10;;
11303;SDS011;5707;49.588;12.148;2023-06-14T09:33:35;3.60;;;2.17;;
11303;SDS011;5707;49.588;12.148;2023-06-14T09:36:01;5.70;;;2.17;;
11303;SDS011;5707;49.588;12.148;2023-06-14T09:38:26;6.43;;;2.17;;
11303;SDS011;5707;49.588;12.148;2023-06-14T09:40:52;1.90;;;1.80;;
11303;SDS011;5707;49.588;12.148;2023-06-14T09:43:18;2.33;;;1.90;;
11303;SDS011;5707;49.588;12.148;2023-06-14T09:45:46;2.25;;;1.85;;
11303;SDS011;5707;49.588;12.148;2023-06-14T09:48:13;2.50;;;1.98;;
11303;SDS011;5707;49.588;12.148;2023-06-14T09:50:45;1.95;;;1.80;;
11303;SDS011;5707;49.588;12.148;2023-06-14T09:53:12;2.28;;;2.03;;
11303;SDS011;5707;49.588;12.148;2023-06-14T09:55:40;4.70;;;2.17;;
11303;SDS011;5707;49.588;12.148;2023-06-14T09:58:07;3.38;;;2.10;;
11303;SDS011;5707;49.588;12.148;2023-06-14T10:00:34;1.80;;;1.70;;
11303;SDS011;5707;49.588;12.148;2023-06-14T10:03:11;2.72;;;1.80;;
11303;SDS011;5707;49.588;12.148;2023-06-14T10:05:38;2.67;;;1.85;;
11303;SDS011;5707;49.588;12.148;2023-06-14T10:08:08;2.90;;;1.88;;
11303;SDS011;5707;49.588;12.148;2023-06-14T10:10:35;3.45;;;1.85;;
11303;SDS011;5707;49.588;12.148;2023-06-14T10:13:03;2.20;;;1.88;;
11303;SDS011;5707;49.588;12.148;2023-06-14T10:15:32;6.25;;;1.83;;
11303;SDS011;5707;49.588;12.148;2023-06-14T10:18:11;1.88;;;1.75;;
11303;SDS011;5707;49.588;12.148;2023-06-14T10:20:51;2.47;;;2.08;;
11303;SDS011;5707;49.588;12.148;2023-06-14T10:23:41;2.05;;;1.95;;
11303;SDS011;5707;49.588;12.148;2023-06-14T10:26:13;5.20;;;2.40;;
11303;SDS011;5707;49.588;12.148;2023-06-14T10:28:50;1.85;;;1.75;;
11303;SDS011;5707;49.588;12.148;2023-06-14T10:31:39;1.63;;;1.52;;
11303;SDS011;5707;49.588;12.148;2023-06-14T10:34:07;2.22;;;2.00;;
11303;SDS011;5707;49.588;12.148;2023-06-14T10:36:33;2.42;;;1.98;;
11303;SDS011;5707;49.588;12.148;2023-06-14T10:41:39;2.10;;;2.00;;
11303;SDS011;5707;49.588;12.148;2023-06-14T10:46:46;2.40;;;1.70;;
11303;SDS011;5707;49.588;12.148;2023-06-14T10:49:16;2.00;;;1.90;;
11303;SDS011;5707;49.588;12.148;2023-06-14T10:51:45;1.85;;;1.63;;
11303;SDS011;5707;49.588;12.148;2023-06-14T10:54:15;1.55;;;1.45;;
11303;SDS011;5707;49.588;12.148;2023-06-14T10:56:48;1.83;;;1.70;;
11303;SDS011;5707;49.588;12.148;2023-06-14T10:59:16;1.85;;;1.75;;
11303;SDS011;5707;49.588;12.148;2023-06-14T11:04:47;2.03;;;1.77;;
11303;SDS011;5707;49.588;12.148;2023-06-14T11:13:03;5.43;;;1.70;;
11303;SDS011;5707;49.588;12.148;2023-06-14T11:15:32;2.22;;;1.80;;
11303;SDS011;5707;49.588;12.148;2023-06-14T11:18:02;2.80;;;2.08;;
11303;SDS011;5707;49.588;12.148;2023-06-14T11:20:33;1.42;;;1.33;;
11303;SDS011;5707;49.588;12.148;2023-06-14T11:23:00;1.88;;;1.77;;
11303;SDS011;5707;49.588;12.148;2023-06-14T11:25:26;2.03;;;1.85;;
11303;SDS011;5707;49.588;12.148;2023-06-14T11:27:53;1.83;;;1.50;;
11303;SDS011;5707;49.588;12.148;2023-06-14T11:30:19;1.98;;;1.88;;
11303;SDS011;5707;49.588;12.148;2023-06-14T11:32:48;2.25;;;1.45;;
11303;SDS011;5707;49.588;12.148;2023-06-14T11:35:15;2.50;;;1.55;;
11303;SDS011;5707;49.588;12.148;2023-06-14T11:37:41;3.08;;;1.90;;
11303;SDS011;5707;49.588;12.148;2023-06-14T11:40:08;1.60;;;1.50;;
11303;SDS011;5707;49.588;12.148;2023-06-14T11:42:38;2.05;;;1.80;;
11303;SDS011;5707;49.588;12.148;2023-06-14T11:45:08;2.70;;;2.00;;
11303;SDS011;5707;49.588;12.148;2023-06-14T11:47:36;2.20;;;1.63;;
11303;SDS011;5707;49.588;12.148;2023-06-14T11:50:04;3.40;;;1.85;;
11303;SDS011;5707;49.588;12.148;2023-06-14T11:52:31;3.70;;;1.60;;
11303;SDS011;5707;49.588;12.148;2023-06-14T11:54:56;3.20;;;1.88;;
11303;SDS011;5707;49.588;12.148;2023-06-14T11:57:22;2.42;;;1.48;;
11303;SDS011;5707;49.588;12.148;2023-06-14T11:59:48;1.55;;;1.30;;
11303;SDS011;5707;49.588;12.148;2023-06-14T12:02:14;1.77;;;1.65;;
11303;SDS011;5707;49.588;12.148;2023-06-14T12:04:41;1.70;;;1.60;;
11303;SDS011;5707;49.588;12.148;2023-06-14T12:07:10;2.55;;;1.65;;
11303;SDS011;5707;49.588;12.148;2023-06-14T12:09:41;1.70;;;1.60;;
11303;SDS011;5707;49.588;12.148;2023-06-14T12:12:09;2.45;;;1.80;;
11303;SDS011;5707;49.588;12.148;2023-06-14T12:14:36;1.42;;;1.33;;
11303;SDS011;5707;49.588;12.148;2023-06-14T12:17:05;1.10;;;1.08;;
11303;SDS011;5707;49.588;12.148;2023-06-14T12:19:41;2.53;;;1.50;;
11303;SDS011;5707;49.588;12.148;2023-06-14T12:22:09;4.97;;;1.45;;
11303;SDS011;5707;49.588;12.148;2023-06-14T12:24:35;1.45;;;1.35;;
11303;SDS011;5707;49.588;12.148;2023-06-14T12:27:01;1.25;;;1.25;;
11303;SDS011;5707;49.588;12.148;2023-06-14T12:29:28;1.90;;;1.50;;
11303;SDS011;5707;49.588;12.148;2023-06-14T12:31:54;2.58;;;1.75;;
11303;SDS011;5707;49.588;12.148;2023-06-14T12:34:22;2.65;;;1.25;;
11303;SDS011;5707;49.588;12.148;2023-06-14T12:36:49;3.00;;;1.90;;
11303;SDS011;5707;49.588;12.148;2023-06-14T12:39:15;4.18;;;1.60;;
11303;SDS011;5707;49.588;12.148;2023-06-14T12:41:41;2.03;;;1.85;;
11303;SDS011;5707;49.588;12.148;2023-06-14T12:44:07;1.75;;;1.65;;
11303;SDS011;5707;49.588;12.148;2023-06-14T12:46:33;1.77;;;1.67;;
11303;SDS011;5707;49.588;12.148;2023-06-14T12:48:59;1.73;;;1.55;;
11303;SDS011;5707;49.588;12.148;2023-06-14T12:51:25;1.33;;;1.23;;
11303;SDS011;5707;49.588;12.148;2023-06-14T12:53:51;2.30;;;1.42;;
11303;SDS011;5707;49.588;12.148;2023-06-14T12:56:17;3.95;;;1.77;;
11303;SDS011;5707;49.588;12.148;2023-06-14T12:58:42;2.85;;;1.27;;
11303;SDS011;5707;49.588;12.148;2023-06-14T13:01:08;1.63;;;1.52;;
11303;SDS011;5707;49.588;12.148;2023-06-14T13:03:34;2.78;;;1.50;;
11303;SDS011;5707;49.588;12.148;2023-06-14T13:06:00;4.30;;;1.60;;
11303;SDS011;5707;49.588;12.148;2023-06-14T13:08:26;3.78;;;1.80;;
11303;SDS011;5707;49.588;12.148;2023-06-14T13:10:52;3.63;;;1.90;;
11303;SDS011;5707;49.588;12.148;2023-06-14T13:13:18;2.10;;;1.45;;
11303;SDS011;5707;49.588;12.148;2023-06-14T13:15:44;3.67;;;1.50;;
11303;SDS011;5707;49.588;12.148;2023-06-14T13:18:11;2.22;;;1.58;;
11303;SDS011;5707;49.588;12.148;2023-06-14T13:20:38;2.15;;;1.33;;
11303;SDS011;5707;49.588;12.148;2023-06-14T13:23:04;1.40;;;1.30;;
11303;SDS011;5707;49.588;12.148;2023-06-14T13:25:32;2.60;;;1.40;;
11303;SDS011;5707;49.588;12.148;2023-06-14T13:27:59;2.42;;;1.60;;
11303;SDS011;5707;49.588;12.148;2023-06-14T13:30:24;1.70;;;1.60;;
11303;SDS011;5707;49.588;12.148;2023-06-14T13:32:50;2.75;;;1.33;;
11303;SDS011;5707;49.588;12.148;2023-06-14T13:35:17;1.83;;;1.73;;
11303;SDS011;5707;49.588;12.148;2023-06-14T13:37:43;1.85;;;1.35;;
11303;SDS011;5707;49.588;12.148;2023-06-14T13:40:09;2.20;;;1.40;;
11303;SDS011;5707;49.588;12.148;2023-06-14T13:42:34;2.30;;;1.58;;
11303;SDS011;5707;49.588;12.148;2023-06-14T13:45:01;2.25;;;1.80;;
11303;SDS011;5707;49.588;12.148;2023-06-14T13:47:28;1.55;;;1.45;;
11303;SDS011;5707;49.588;12.148;2023-06-14T13:49:53;2.20;;;1.95;;
11303;SDS011;5707;49.588;12.148;2023-06-14T13:52:19;4.78;;;1.83;;
11303;SDS011;5707;49.588;12.148;2023-06-14T13:54:45;1.70;;;1.60;;
11303;SDS011;5707;49.588;12.148;2023-06-14T13:57:11;1.35;;;1.30;;
11303;SDS011;5707;49.588;12.148;2023-06-14T13:59:37;1.80;;;1.63;;
11303;SDS011;5707;49.588;12.148;2023-06-14T14:02:04;2.55;;;1.60;;
11303;SDS011;5707;49.588;12.148;2023-06-14T14:04:30;1.23;;;1.23;;
11303;SDS011;5707;49.588;12.148;2023-06-14T14:06:56;1.60;;;1.50;;
11303;SDS011;5707;49.588;12.148;2023-06-14T14:09:22;2.25;;;1.70;;
11303;SDS011;5707;49.588;12.148;2023-06-14T14:11:47;1.50;;;1.40;;
11303;SDS011;5707;49.588;12.148;2023-06-14T14:14:13;3.22;;;1.60;;
11303;SDS011;5707;49.588;12.148;2023-06-14T14:16:39;1.60;;;1.50;;
11303;SDS011;5707;49.588;12.148;2023-06-14T14:19:05;1.63;;;1.45;;
11303;SDS011;5707;49.588;12.148;2023-06-14T14:21:31;2.00;;;1.38;;
11303;SDS011;5707;49.588;12.148;2023-06-14T14:23:57;1.52;;;1.42;;
11303;SDS011;5707;49.588;12.148;2023-06-14T14:26:23;1.33;;;1.20;;
11303;SDS011;5707;49.588;12.148;2023-06-14T14:28:49;1.58;;;1.48;;
11303;SDS011;5707;49.588;12.148;2023-06-14T14:31:15;1.30;;;1.20;;
11303;SDS011;5707;49.588;12.148;2023-06-14T14:33:41;1.77;;;1.63;;
11303;SDS011;5707;49.588;12.148;2023-06-14T14:36:07;1.20;;;1.10;;
11303;SDS011;5707;49.588;12.148;2023-06-14T14:38:32;1.40;;;1.30;;
11303;SDS011;5707;49.588;12.148;2023-06-14T14:40:58;1.50;;;1.20;;
11303;SDS011;5707;49.588;12.148;2023-06-14T14:43:24;2.15;;;1.30;;
11303;SDS011;5707;49.588;12.148;2023-06-14T14:45:50;1.30;;;1.20;;
11303;SDS011;5707;49.588;12.148;2023-06-14T14:48:15;1.30;;;1.20;;
11303;SDS011;5707;49.588;12.148;2023-06-14T14:50:41;1.25;;;1.15;;
11303;SDS011;5707;49.588;12.148;2023-06-14T14:53:06;1.90;;;1.58;;
11303;SDS011;5707;49.588;12.148;2023-06-14T14:55:32;1.20;;;1.10;;
11303;SDS011;5707;49.588;12.148;2023-06-14T14:58:01;2.47;;;1.38;;
11303;SDS011;5707;49.588;12.148;2023-06-14T15:00:28;1.60;;;1.50;;
11303;SDS011;5707;49.588;12.148;2023-06-14T15:02:53;1.58;;;1.38;;